Aérodrome :
LOGIN :

S'inscrire | Disclaimer

   EN    FR    IT 

 










Légende :    VFR   VFR Marginal   IFR   IFR Intensif   IFR Très Intensif
Visi : 
Plafond : 
>= 8 km
>= 3000ft
5 à 8 km
1000 à 3000 ft
1500m à 5 km
500 à 1000 ft
800 à 1500m
200 à 500 ft
< 800m
< 200 ft
Symboles :   Orages  Brouillard  Fortes neiges  Fortes précipitations  Vent > 20 kt
SIGMETs :   Divers  Orages  Givrage  Turbulence  Onde Orograph.  Cendres Volcan.






- Altitude de l'aérodrome : 83 ft
- Code IATA : LHR


EGLL - London Heathrow

DERNIER METAR :
  • 311020Z AUTO 09011KT 050V120 9999 NCD 24/04 Q1022

METARs EXPIRÉS :
  • 310950Z AUTO 10011KT 9999 NCD 23/05 Q1022
  • 310920Z AUTO 09009KT 050V130 9999 NCD 22/07 Q1022 NOSIG
  • 310850Z AUTO 07007KT 040V110 9999 NCD 21/08 Q1023
  • 310820Z AUTO 08007KT 040V110 9999 NCD 19/09 Q1023 NOSIG
  • 310750Z AUTO 07006KT 030V120 9999 NCD 18/09 Q1023 NOSIG
  • 310720Z AUTO 07008KT 030V100 9999 NCD 17/10 Q1022 NOSIG

TAF TAF EGLL
Valide du 31 à 06h jusqu'au 01 à 12h UTC


310454Z 3106/0112 06008KT CAVOK
PROB30
TEMPO 3111/3119 08015G25KT



MET'MAP, la Météo Aéronautique d'un coup d'oeil ! - Copyright ORBIFLY Décembre 2007 - Disclaimer

ORBIFLY MET'MAP TEAM :

Programmation & Développement : Alexandra Zaïnal
Sur une idée originale de : Baudouin d'Aumeries
Assistance à la programmation : Marc-Olivier Méhu
Soutien technique & logistique : Manuel Goepfert

Contact : metmap@orbifly.com




SOURCES & CREDITS :

   NOAA